createdAt,value
2019-01-17T00:00:12.085Z,2.57
2019-01-17T00:02:39.140Z,3.17
2019-01-17T00:05:06.258Z,2.87
2019-01-17T00:07:33.406Z,2.60
2019-01-17T00:10:00.509Z,2.40
2019-01-17T00:12:27.588Z,2.80
2019-01-17T00:14:54.716Z,2.70
2019-01-17T00:17:21.769Z,3.10
2019-01-17T00:19:48.874Z,2.67
2019-01-17T00:22:15.947Z,2.67
2019-01-17T00:24:43.035Z,2.40
2019-01-17T00:27:10.096Z,3.40
2019-01-17T00:29:37.219Z,2.43
2019-01-17T00:32:04.306Z,2.43
2019-01-17T00:34:34.231Z,2.50
2019-01-17T00:37:01.478Z,2.80
2019-01-17T00:39:28.555Z,2.90
2019-01-17T00:41:55.698Z,2.80
2019-01-17T00:44:22.848Z,2.67
2019-01-17T00:46:49.945Z,2.30
2019-01-17T00:49:17.002Z,2.70
2019-01-17T00:51:44.073Z,2.83
2019-01-17T00:54:11.175Z,2.60
2019-01-17T00:56:38.238Z,2.50
2019-01-17T00:59:05.370Z,2.27
2019-01-17T01:01:32.422Z,2.50
2019-01-17T01:03:59.490Z,2.50
2019-01-17T01:06:26.704Z,2.40
2019-01-17T01:08:53.756Z,2.90
2019-01-17T01:11:20.855Z,2.53
2019-01-17T01:13:47.925Z,2.50
2019-01-17T01:16:15.012Z,2.67
2019-01-17T01:18:42.124Z,2.37
2019-01-17T01:21:09.205Z,2.37
2019-01-17T01:23:36.303Z,2.13
2019-01-17T01:26:03.356Z,2.53
2019-01-17T01:28:30.567Z,2.33
2019-01-17T01:30:57.643Z,2.70
2019-01-17T01:33:24.804Z,2.03
2019-01-17T01:35:51.887Z,2.40
2019-01-17T01:38:20.187Z,2.47
2019-01-17T01:40:47.250Z,2.37
2019-01-17T01:43:14.337Z,2.47
2019-01-17T01:45:41.428Z,2.63
2019-01-17T01:48:08.578Z,2.30
2019-01-17T01:50:35.650Z,2.37
2019-01-17T01:53:02.743Z,2.60
2019-01-17T01:55:29.846Z,2.90
2019-01-17T01:57:56.935Z,2.47
2019-01-17T02:00:24.066Z,2.80
2019-01-17T02:02:51.157Z,2.97
2019-01-17T02:05:18.313Z,2.53
2019-01-17T02:07:45.362Z,2.40
2019-01-17T02:10:12.446Z,2.20
2019-01-17T02:12:39.513Z,3.10
2019-01-17T02:15:06.600Z,2.27
2019-01-17T02:17:33.710Z,2.10
2019-01-17T02:20:00.772Z,2.23
2019-01-17T02:22:27.865Z,1.83
2019-01-17T02:24:54.937Z,2.13
2019-01-17T02:27:22.138Z,2.73
2019-01-17T02:29:49.216Z,2.47
2019-01-17T02:32:16.424Z,3.20
2019-01-17T02:34:43.520Z,2.20
2019-01-17T02:37:10.583Z,2.30
2019-01-17T02:39:37.799Z,2.10
2019-01-17T02:42:04.935Z,2.60
2019-01-17T02:44:32.028Z,2.20
2019-01-17T02:46:59.168Z,2.30
2019-01-17T02:49:26.257Z,2.60
2019-01-17T02:51:53.424Z,2.93
2019-01-17T02:54:20.509Z,2.67
2019-01-17T02:56:47.573Z,2.67
2019-01-17T02:59:14.839Z,2.60
2019-01-17T03:01:41.923Z,2.70
2019-01-17T03:04:09.002Z,2.20
2019-01-17T03:06:36.139Z,2.87
2019-01-17T03:09:03.275Z,2.30
2019-01-17T03:11:30.387Z,3.20
2019-01-17T03:13:57.481Z,2.60
2019-01-17T03:16:24.555Z,2.60
2019-01-17T03:18:51.782Z,2.73
2019-01-17T03:21:18.867Z,2.50
2019-01-17T03:23:45.962Z,2.20
2019-01-17T03:26:13.050Z,3.00
2019-01-17T03:28:40.212Z,2.70
2019-01-17T03:31:07.295Z,2.63
2019-01-17T03:33:34.432Z,2.60
2019-01-17T03:36:01.535Z,2.50
2019-01-17T03:38:28.610Z,3.20
2019-01-17T03:40:55.715Z,2.50
2019-01-17T03:43:22.765Z,2.50
2019-01-17T03:45:49.860Z,2.80
2019-01-17T03:48:16.930Z,2.80
2019-01-17T03:50:44.011Z,2.40
2019-01-17T03:53:11.090Z,2.50
2019-01-17T03:55:38.236Z,2.80
2019-01-17T03:58:05.302Z,2.50
2019-01-17T04:00:32.400Z,2.60
2019-01-17T04:02:59.465Z,3.00
2019-01-17T04:05:26.559Z,3.10
2019-01-17T04:07:53.633Z,3.33
2019-01-17T04:10:20.727Z,3.03
2019-01-17T04:12:47.800Z,2.90
2019-01-17T04:15:14.933Z,2.37
2019-01-17T04:17:42.106Z,2.93
2019-01-17T04:20:09.191Z,2.53
2019-01-17T04:22:36.269Z,2.50
2019-01-17T04:25:03.426Z,2.90
2019-01-17T04:27:30.497Z,2.23
2019-01-17T04:29:57.581Z,2.43
2019-01-17T04:32:24.667Z,2.47
2019-01-17T04:34:51.743Z,2.50
2019-01-17T04:37:18.964Z,2.67
2019-01-17T04:39:46.090Z,2.37
2019-01-17T04:42:13.216Z,3.47
2019-01-17T04:44:40.350Z,2.30
2019-01-17T04:47:07.580Z,2.37
2019-01-17T04:49:34.735Z,2.77
2019-01-17T04:52:01.830Z,2.60
2019-01-17T04:54:28.917Z,2.80
2019-01-17T04:56:55.982Z,2.70
2019-01-17T04:59:23.037Z,2.50
2019-01-17T05:01:50.260Z,2.83
2019-01-17T05:04:17.409Z,1.97
2019-01-17T05:06:44.490Z,2.63
2019-01-17T05:09:11.545Z,2.83
2019-01-17T05:11:38.632Z,2.53
2019-01-17T05:14:05.772Z,2.17
2019-01-17T05:16:32.938Z,2.37
2019-01-17T05:18:59.999Z,2.57
2019-01-17T05:21:27.098Z,2.10
2019-01-17T05:23:54.166Z,2.37
2019-01-17T05:26:21.343Z,2.47
2019-01-17T05:28:48.455Z,1.93
2019-01-17T05:31:15.535Z,2.07
2019-01-17T05:33:42.647Z,2.57
2019-01-17T05:36:09.936Z,2.57
2019-01-17T05:38:37.030Z,2.67
2019-01-17T05:41:04.081Z,2.47
2019-01-17T05:43:31.179Z,2.10
2019-01-17T05:45:58.241Z,2.97
2019-01-17T05:48:25.378Z,3.10
2019-01-17T05:50:52.475Z,2.70
2019-01-17T05:53:19.539Z,2.00
2019-01-17T05:55:46.757Z,2.30
2019-01-17T05:58:13.842Z,2.40
2019-01-17T06:00:41.051Z,2.80
2019-01-17T06:03:08.106Z,2.03
2019-01-17T06:05:35.199Z,2.20
2019-01-17T06:08:02.306Z,3.33
2019-01-17T06:10:29.371Z,2.70
2019-01-17T06:12:56.425Z,2.27
2019-01-17T06:15:23.506Z,2.73
2019-01-17T06:17:50.573Z,2.20
2019-01-17T06:20:17.662Z,2.50
2019-01-17T06:22:44.718Z,2.40
2019-01-17T06:25:11.928Z,2.57
2019-01-17T06:27:39.034Z,2.63
2019-01-17T06:30:06.112Z,2.27
2019-01-17T06:32:33.266Z,2.60
2019-01-17T06:35:00.363Z,2.70
2019-01-17T06:37:27.432Z,2.70
2019-01-17T06:39:54.480Z,2.90
2019-01-17T06:42:21.589Z,2.73
2019-01-17T06:44:51.555Z,2.37
2019-01-17T06:47:18.824Z,2.23
2019-01-17T06:49:45.926Z,2.60
2019-01-17T06:52:13.010Z,2.80
2019-01-17T06:54:40.074Z,2.63
2019-01-17T06:57:07.126Z,2.87
2019-01-17T06:59:34.270Z,3.00
2019-01-17T07:02:01.362Z,3.47
2019-01-17T07:04:28.421Z,2.73
2019-01-17T07:06:55.658Z,2.80
2019-01-17T07:09:22.774Z,3.10
2019-01-17T07:11:49.869Z,2.73
2019-01-17T07:14:16.934Z,2.60
2019-01-17T07:16:44.221Z,3.30
2019-01-17T07:19:11.313Z,2.60
2019-01-17T07:21:38.366Z,3.27
2019-01-17T07:24:05.468Z,2.70
2019-01-17T07:26:32.616Z,2.60
2019-01-17T07:28:59.675Z,2.87
2019-01-17T07:31:26.813Z,2.27
2019-01-17T07:33:53.916Z,3.20
2019-01-17T07:36:21.014Z,3.20
2019-01-17T07:38:48.075Z,2.90
2019-01-17T07:41:15.150Z,2.63
2019-01-17T07:43:42.352Z,2.87
2019-01-17T07:46:09.611Z,3.60
2019-01-17T07:48:36.667Z,2.93
2019-01-17T07:51:03.767Z,2.80
2019-01-17T07:53:30.828Z,2.70
2019-01-17T07:55:57.882Z,3.67
2019-01-17T07:58:25.062Z,2.90
2019-01-17T08:00:52.144Z,2.83
2019-01-17T08:03:19.247Z,3.10
2019-01-17T08:05:46.305Z,2.87
2019-01-17T08:08:13.449Z,2.50
2019-01-17T08:10:40.505Z,2.80
2019-01-17T08:13:07.623Z,3.10
2019-01-17T08:15:34.679Z,2.90
2019-01-17T08:18:01.738Z,3.10
2019-01-17T08:20:28.888Z,2.73
2019-01-17T08:22:55.996Z,3.13
2019-01-17T08:25:23.188Z,3.30
2019-01-17T08:27:50.280Z,2.80
2019-01-17T08:30:17.366Z,3.07
2019-01-17T08:32:44.427Z,2.83
2019-01-17T08:35:11.580Z,2.87
2019-01-17T08:37:38.636Z,3.00
2019-01-17T08:40:05.704Z,2.80
2019-01-17T08:42:33.685Z,2.30
2019-01-17T08:45:00.884Z,2.97
2019-01-17T08:47:27.992Z,2.90
2019-01-17T08:49:56.798Z,2.60
2019-01-17T08:52:23.855Z,3.20
2019-01-17T08:54:51.044Z,3.10
2019-01-17T08:57:18.128Z,3.00
2019-01-17T08:59:45.188Z,2.97
2019-01-17T09:02:12.704Z,3.07
2019-01-17T09:04:39.811Z,2.90
2019-01-17T09:07:07.096Z,3.07
2019-01-17T09:09:34.168Z,3.03
2019-01-17T09:12:01.254Z,2.80
2019-01-17T09:14:28.361Z,2.80
2019-01-17T09:16:55.428Z,2.37
2019-01-17T09:19:22.519Z,3.07
2019-01-17T09:21:49.571Z,3.20
2019-01-17T09:24:16.668Z,2.60
2019-01-17T09:26:43.732Z,3.00
2019-01-17T09:29:10.935Z,2.93
2019-01-17T09:31:38.019Z,2.83
2019-01-17T09:34:05.114Z,2.97
2019-01-17T09:36:32.413Z,2.77
2019-01-17T09:38:59.740Z,2.80
2019-01-17T09:41:26.811Z,2.80
2019-01-17T09:43:53.898Z,3.13
2019-01-17T09:46:20.966Z,2.67
2019-01-17T09:48:48.139Z,3.07
2019-01-17T09:51:15.227Z,3.00
2019-01-17T09:53:42.338Z,2.93
2019-01-17T09:56:14.820Z,2.73
2019-01-17T09:58:38.370Z,3.03
2019-01-17T10:01:05.457Z,2.77
2019-01-17T10:03:32.550Z,2.87
2019-01-17T10:05:59.610Z,3.37
2019-01-17T10:08:26.766Z,2.60
2019-01-17T10:10:53.852Z,2.83
2019-01-17T10:13:20.938Z,3.63
2019-01-17T10:15:47.995Z,2.90
2019-01-17T10:18:15.105Z,3.13
2019-01-17T10:20:42.259Z,2.80
2019-01-17T10:23:09.359Z,2.83
2019-01-17T10:25:36.417Z,3.13
2019-01-17T10:28:03.569Z,3.10
2019-01-17T10:30:30.621Z,2.70
2019-01-17T10:32:57.701Z,3.40
2019-01-17T10:35:24.911Z,2.80
2019-01-17T10:37:51.965Z,2.87
2019-01-17T10:40:19.058Z,2.53
2019-01-17T10:42:46.244Z,3.07
2019-01-17T10:45:13.362Z,2.87
2019-01-17T10:47:40.435Z,2.43
2019-01-17T10:50:07.530Z,2.40
2019-01-17T10:52:34.710Z,2.90
2019-01-17T10:55:01.876Z,2.70
2019-01-17T10:57:28.927Z,2.47
2019-01-17T10:59:56.006Z,2.43
2019-01-17T11:02:23.575Z,2.80
2019-01-17T11:04:50.663Z,2.43
2019-01-17T11:07:17.763Z,2.00
2019-01-17T11:09:44.816Z,2.40
2019-01-17T11:12:11.903Z,2.40
2019-01-17T11:14:39.025Z,2.77
2019-01-17T11:17:06.159Z,2.30
2019-01-17T11:19:33.234Z,1.90
2019-01-17T11:22:00.320Z,1.97
2019-01-17T11:24:27.411Z,2.63
2019-01-17T11:26:54.501Z,2.27
2019-01-17T11:29:21.805Z,2.50
2019-01-17T11:31:48.923Z,2.10
2019-01-17T11:34:16.032Z,2.67
2019-01-17T11:36:43.253Z,1.77
2019-01-17T11:39:10.388Z,2.00
2019-01-17T11:41:37.745Z,1.70
2019-01-17T11:44:04.885Z,2.20
2019-01-17T11:46:32.272Z,2.10
2019-01-17T11:49:01.930Z,1.87
2019-01-17T11:51:29.059Z,3.00
2019-01-17T11:53:56.124Z,2.30
2019-01-17T11:56:23.306Z,1.70
2019-01-17T11:58:50.363Z,1.97
2019-01-17T12:01:17.457Z,2.10
2019-01-17T12:03:44.544Z,1.90
2019-01-17T12:06:11.624Z,2.03
2019-01-17T12:08:39.023Z,1.40
2019-01-17T12:11:06.145Z,1.87
2019-01-17T12:13:33.297Z,1.80
2019-01-17T12:16:00.636Z,1.70
2019-01-17T12:18:27.722Z,1.80
2019-01-17T12:20:54.821Z,1.60
2019-01-17T12:23:21.992Z,1.87
2019-01-17T12:25:49.286Z,1.90
2019-01-17T12:28:16.510Z,1.60
2019-01-17T12:30:43.662Z,1.50
2019-01-17T12:33:10.763Z,1.40
2019-01-17T12:35:37.843Z,1.20
2019-01-17T12:38:04.989Z,1.57
2019-01-17T12:40:32.154Z,1.20
2019-01-17T12:42:59.353Z,1.77
2019-01-17T12:45:26.420Z,1.60
2019-01-17T12:47:53.724Z,1.60
2019-01-17T12:50:20.861Z,1.33
2019-01-17T12:52:47.993Z,1.40
2019-01-17T12:55:15.109Z,1.30
2019-01-17T12:57:42.268Z,1.40
2019-01-17T13:00:09.464Z,1.30
2019-01-17T13:02:36.600Z,1.80
2019-01-17T13:05:03.700Z,1.30
2019-01-17T13:07:30.787Z,1.27
2019-01-17T13:09:57.875Z,1.50
2019-01-17T13:12:25.011Z,1.20
2019-01-17T13:14:52.135Z,1.50
2019-01-17T13:17:19.402Z,1.20
2019-01-17T13:19:46.560Z,1.60
2019-01-17T13:22:13.626Z,2.00
2019-01-17T13:24:40.710Z,2.00
2019-01-17T13:27:07.889Z,2.03
2019-01-17T13:29:34.968Z,2.33
2019-01-17T13:32:02.076Z,2.10
2019-01-17T13:34:29.172Z,2.20
2019-01-17T13:36:56.262Z,1.67
2019-01-17T13:39:23.330Z,1.83
2019-01-17T13:41:50.423Z,2.00
2019-01-17T13:44:17.515Z,1.73
2019-01-17T13:46:44.585Z,1.67
2019-01-17T13:49:11.794Z,1.40
2019-01-17T13:51:38.868Z,1.70
2019-01-17T13:54:06.000Z,1.70
2019-01-17T13:56:33.084Z,1.33
2019-01-17T13:59:00.227Z,1.23
2019-01-17T14:01:27.291Z,1.37
2019-01-17T14:03:54.430Z,1.13
2019-01-17T14:06:21.493Z,1.27
2019-01-17T14:08:48.554Z,1.10
2019-01-17T14:11:15.661Z,1.30
2019-01-17T14:13:42.713Z,1.07
2019-01-17T14:16:12.875Z,1.10
2019-01-17T14:18:39.982Z,1.10
2019-01-17T14:21:07.064Z,1.23
2019-01-17T14:23:34.149Z,1.77
2019-01-17T14:26:01.233Z,1.40
2019-01-17T14:28:28.327Z,1.83
2019-01-17T14:30:55.387Z,1.03
2019-01-17T14:33:22.478Z,1.30
2019-01-17T14:35:49.728Z,1.20
2019-01-17T14:38:16.786Z,1.17
2019-01-17T14:40:43.880Z,1.27
2019-01-17T14:43:11.017Z,1.30
2019-01-17T14:45:38.112Z,1.20
2019-01-17T14:48:05.191Z,1.07
2019-01-17T14:50:33.181Z,0.80
2019-01-17T14:53:00.236Z,0.83
2019-01-17T14:55:27.320Z,1.20
2019-01-17T14:57:54.410Z,1.20
2019-01-17T15:00:21.480Z,1.13
2019-01-17T15:02:48.574Z,1.30
2019-01-17T15:05:15.632Z,0.97
2019-01-17T15:07:42.722Z,0.77
2019-01-17T15:10:09.802Z,1.10
2019-01-17T15:12:36.900Z,1.10
2019-01-17T15:15:03.997Z,0.97
2019-01-17T15:17:31.135Z,1.10
2019-01-17T15:19:58.225Z,0.87
2019-01-17T15:22:25.323Z,0.87
2019-01-17T15:24:52.495Z,0.87
2019-01-17T15:27:19.774Z,0.93
2019-01-17T15:29:46.826Z,1.13
2019-01-17T15:32:14.117Z,1.30
2019-01-17T15:34:41.188Z,1.03
2019-01-17T15:37:08.275Z,1.00
2019-01-17T15:39:35.372Z,1.10
2019-01-17T15:42:02.458Z,0.90
2019-01-17T15:44:29.550Z,1.13
2019-01-17T15:46:56.608Z,1.00
2019-01-17T15:49:23.718Z,1.03
2019-01-17T15:51:50.775Z,0.90
2019-01-17T15:54:17.878Z,1.20
2019-01-17T15:56:44.947Z,1.30
2019-01-17T15:59:12.027Z,0.90
2019-01-17T16:01:39.108Z,1.07
2019-01-17T16:04:06.194Z,1.03
2019-01-17T16:06:33.255Z,1.20
2019-01-17T16:09:00.401Z,1.20
2019-01-17T16:11:27.476Z,1.20
2019-01-17T16:13:54.538Z,1.20
2019-01-17T16:16:21.754Z,1.50
2019-01-17T16:18:48.846Z,1.20
2019-01-17T16:21:15.984Z,1.10
2019-01-17T16:23:43.055Z,0.90
2019-01-17T16:26:10.348Z,1.30
2019-01-17T16:28:37.394Z,1.20
2019-01-17T16:31:04.496Z,1.20
2019-01-17T16:33:31.601Z,1.40
2019-01-17T16:35:58.725Z,1.40
2019-01-17T16:38:25.971Z,1.30
2019-01-17T16:40:53.296Z,1.20
2019-01-17T16:43:20.432Z,1.10
2019-01-17T16:45:47.520Z,1.30
2019-01-17T16:48:14.811Z,1.23
2019-01-17T16:50:41.911Z,1.10
2019-01-17T16:53:09.004Z,1.20
2019-01-17T16:55:36.151Z,1.30
2019-01-17T16:58:03.219Z,1.50
2019-01-17T17:00:30.309Z,1.20
2019-01-17T17:02:57.375Z,1.17
2019-01-17T17:05:24.508Z,1.30
2019-01-17T17:07:51.568Z,1.20
2019-01-17T17:10:18.671Z,1.30
2019-01-17T17:12:45.792Z,1.33
2019-01-17T17:15:12.914Z,1.50
2019-01-17T17:17:40.206Z,0.90
2019-01-17T17:20:07.276Z,1.00
2019-01-17T17:22:34.376Z,1.20
2019-01-17T17:25:01.427Z,0.80
2019-01-17T17:27:28.620Z,1.10
2019-01-17T17:29:55.684Z,0.80
2019-01-17T17:32:22.935Z,1.60
2019-01-17T17:34:50.006Z,0.87
2019-01-17T17:37:17.182Z,1.10
2019-01-17T17:39:44.297Z,1.20
2019-01-17T17:42:11.447Z,1.00
2019-01-17T17:44:38.511Z,1.10
2019-01-17T17:47:05.782Z,1.00
2019-01-17T17:49:32.888Z,1.10
2019-01-17T17:51:59.978Z,0.90
2019-01-17T17:54:27.134Z,1.30
2019-01-17T17:57:02.206Z,1.23
2019-01-17T17:59:28.315Z,1.30
2019-01-17T18:02:06.628Z,1.43
2019-01-17T18:04:45.878Z,1.27
2019-01-17T18:07:21.988Z,1.30
2019-01-17T18:09:47.625Z,1.00
2019-01-17T18:12:14.682Z,1.00
2019-01-17T18:14:41.849Z,1.30
2019-01-17T18:17:08.938Z,1.07
2019-01-17T18:19:36.030Z,1.30
2019-01-17T18:22:03.092Z,1.77
2019-01-17T18:24:30.223Z,1.17
2019-01-17T18:26:57.570Z,1.33
2019-01-17T18:29:24.824Z,1.47
2019-01-17T18:31:51.904Z,1.30
2019-01-17T18:34:19.058Z,0.97
2019-01-17T18:36:46.277Z,1.20
2019-01-17T18:39:13.465Z,1.30
2019-01-17T18:41:40.578Z,1.10
2019-01-17T18:44:07.669Z,0.80
2019-01-17T18:46:34.865Z,1.40
2019-01-17T18:49:01.980Z,1.27
2019-01-17T18:51:29.060Z,1.40
2019-01-17T18:53:56.245Z,1.60
2019-01-17T18:56:23.319Z,1.13
2019-01-17T18:58:51.553Z,1.10
2019-01-17T19:01:18.604Z,1.10
2019-01-17T19:03:55.277Z,1.30
2019-01-17T19:06:21.506Z,1.70
2019-01-17T19:08:48.814Z,1.20
2019-01-17T19:11:16.023Z,1.40
2019-01-17T19:13:43.103Z,1.60
2019-01-17T19:16:10.295Z,1.63
2019-01-17T19:18:37.395Z,1.80
2019-01-17T19:21:04.457Z,1.70
2019-01-17T19:23:31.573Z,1.07
2019-01-17T19:25:58.637Z,1.63
2019-01-17T19:28:26.013Z,1.17
2019-01-17T19:30:53.538Z,1.50
2019-01-17T19:33:20.678Z,1.70
2019-01-17T19:35:47.744Z,1.37
2019-01-17T19:38:14.814Z,1.30
2019-01-17T19:40:42.085Z,1.83
2019-01-17T19:43:09.289Z,1.30
2019-01-17T19:45:36.397Z,1.40
2019-01-17T19:48:03.517Z,1.17
2019-01-17T19:50:30.672Z,1.33
2019-01-17T19:52:57.803Z,0.93
2019-01-17T19:55:24.869Z,2.30
2019-01-17T19:57:52.333Z,1.40
2019-01-17T20:00:19.622Z,1.30
2019-01-17T20:02:46.745Z,1.13
2019-01-17T20:05:13.970Z,1.20
2019-01-17T20:07:41.040Z,1.30
2019-01-17T20:10:08.170Z,1.40
2019-01-17T20:12:35.558Z,2.10
2019-01-17T20:15:02.625Z,1.30
2019-01-17T20:17:30.630Z,1.50
2019-01-17T20:19:57.911Z,1.43
2019-01-17T20:22:25.059Z,1.53
2019-01-17T20:24:52.297Z,1.43
2019-01-17T20:27:19.488Z,1.40
2019-01-17T20:29:46.717Z,1.27
2019-01-17T20:32:18.762Z,1.30
2019-01-17T20:34:42.649Z,1.33
2019-01-17T20:37:09.834Z,1.20
2019-01-17T20:39:36.894Z,0.90
2019-01-17T20:42:04.001Z,1.30
2019-01-17T20:44:31.150Z,0.97
2019-01-17T20:46:58.257Z,1.10
2019-01-17T20:49:25.325Z,1.17
2019-01-17T20:51:52.528Z,1.50
2019-01-17T20:54:19.592Z,1.60
2019-01-17T20:56:46.684Z,1.83
2019-01-17T20:59:13.759Z,1.90
2019-01-17T21:01:40.860Z,2.10
2019-01-17T21:04:07.948Z,1.90
2019-01-17T21:06:35.271Z,1.77
2019-01-17T21:09:02.335Z,1.67
2019-01-17T21:11:29.454Z,2.60
2019-01-17T21:13:56.600Z,1.93
2019-01-17T21:16:23.682Z,1.80
2019-01-17T21:18:50.773Z,2.07
2019-01-17T21:21:17.882Z,2.10
2019-01-17T21:23:44.942Z,1.90
2019-01-17T21:26:12.234Z,1.90
2019-01-17T21:28:39.550Z,1.40
2019-01-17T21:31:06.745Z,1.70
2019-01-17T21:33:34.161Z,2.03
2019-01-17T21:36:01.256Z,1.67
2019-01-17T21:38:28.428Z,1.43
2019-01-17T21:40:55.485Z,1.23
2019-01-17T21:43:22.554Z,1.80
2019-01-17T21:45:49.624Z,1.47
2019-01-17T21:48:16.875Z,1.77
2019-01-17T21:50:43.944Z,1.50
2019-01-17T21:53:11.037Z,1.60
2019-01-17T21:55:38.179Z,1.20
2019-01-17T21:58:05.492Z,1.40
2019-01-17T22:00:32.639Z,1.40
2019-01-17T22:02:59.704Z,1.40
2019-01-17T22:05:26.827Z,1.10
2019-01-17T22:07:53.924Z,1.17
2019-01-17T22:10:20.991Z,1.27
2019-01-17T22:12:48.082Z,1.17
2019-01-17T22:15:15.148Z,1.60
2019-01-17T22:17:42.258Z,1.30
2019-01-17T22:20:09.362Z,1.20
2019-01-17T22:22:36.430Z,1.30
2019-01-17T22:25:03.520Z,1.60
2019-01-17T22:27:30.637Z,1.20
2019-01-17T22:29:57.742Z,1.33
2019-01-17T22:32:25.068Z,1.40
2019-01-17T22:34:52.148Z,1.20
2019-01-17T22:37:19.504Z,1.10
2019-01-17T22:39:46.570Z,1.47
2019-01-17T22:42:13.703Z,0.83
2019-01-17T22:44:40.771Z,0.90
2019-01-17T22:47:07.883Z,0.93
2019-01-17T22:49:34.995Z,1.00
2019-01-17T22:52:02.246Z,1.00
2019-01-17T22:54:29.326Z,0.83
2019-01-17T22:56:56.442Z,0.80
2019-01-17T22:59:23.507Z,0.97
2019-01-17T23:01:50.603Z,1.00
2019-01-17T23:04:17.718Z,0.77
2019-01-17T23:06:44.770Z,0.90
2019-01-17T23:09:11.855Z,0.93
2019-01-17T23:11:38.951Z,1.17
2019-01-17T23:14:06.014Z,1.00
2019-01-17T23:16:33.260Z,1.07
2019-01-17T23:19:00.491Z,0.60
2019-01-17T23:21:27.578Z,1.17
2019-01-17T23:23:54.688Z,0.90
2019-01-17T23:26:21.736Z,0.70
2019-01-17T23:28:48.802Z,0.60
2019-01-17T23:31:15.966Z,0.80
2019-01-17T23:33:43.023Z,0.90
2019-01-17T23:36:10.129Z,0.70
2019-01-17T23:38:37.217Z,0.93
2019-01-17T23:41:04.310Z,1.10
2019-01-17T23:43:31.386Z,0.77
2019-01-17T23:45:58.650Z,0.50
2019-01-17T23:48:25.797Z,0.70
2019-01-17T23:50:52.924Z,0.60
2019-01-17T23:53:20.009Z,0.60
2019-01-17T23:55:47.252Z,1.00
2019-01-17T23:58:14.325Z,0.70
